sensor_id;sensor_type;location;lat;lon;timestamp;pressure;altitude;pressure_sealevel;temperature;humidity
30873;BME280;17579;42.690;2.586;2024-02-26T11:05:23;95534.78;;;10.74;68.81
30873;BME280;17579;42.690;2.586;2024-02-26T11:08:04;95536.38;;;10.69;69.30
30873;BME280;17579;42.690;2.586;2024-02-26T11:10:33;95542.28;;;10.71;69.48
30873;BME280;17579;42.690;2.586;2024-02-26T11:13:12;95533.75;;;10.69;69.70
30873;BME280;17579;42.690;2.586;2024-02-26T11:15:42;95536.53;;;10.67;69.64
30873;BME280;17579;42.690;2.586;2024-02-26T11:18:19;95527.81;;;10.67;69.37
30873;BME280;17579;42.690;2.586;2024-02-26T11:20:48;95522.41;;;10.75;69.36
30873;BME280;17579;42.690;2.586;2024-02-26T11:23:23;95524.84;;;10.77;69.35
30873;BME280;17579;42.690;2.586;2024-02-26T11:25:54;95525.66;;;10.77;69.52
30873;BME280;17579;42.690;2.586;2024-02-26T11:28:50;95516.09;;;10.76;69.28
30873;BME280;17579;42.690;2.586;2024-02-26T11:31:25;95519.94;;;10.73;69.47
30873;BME280;17579;42.690;2.586;2024-02-26T11:33:55;95519.94;;;10.73;69.41
30873;BME280;17579;42.690;2.586;2024-02-26T11:36:27;95523.97;;;10.69;68.65
30873;BME280;17579;42.690;2.586;2024-02-26T11:39:04;95525.53;;;10.64;68.87
30873;BME280;17579;42.690;2.586;2024-02-26T11:41:36;95515.16;;;10.62;68.97
30873;BME280;17579;42.690;2.586;2024-02-26T11:44:13;95520.44;;;10.62;68.51
30873;BME280;17579;42.690;2.586;2024-02-26T11:47:01;95510.09;;;10.67;69.20
30873;BME280;17579;42.690;2.586;2024-02-26T11:49:39;95509.28;;;10.67;69.61
30873;BME280;17579;42.690;2.586;2024-02-26T11:52:14;95506.66;;;10.67;70.32
30873;BME280;17579;42.690;2.586;2024-02-26T11:54:52;95500.75;;;10.65;70.72
30873;BME280;17579;42.690;2.586;2024-02-26T11:57:44;95502.88;;;10.54;70.35
30873;BME280;17579;42.690;2.586;2024-02-26T12:00:17;95504.69;;;10.54;70.78
30873;BME280;17579;42.690;2.586;2024-02-26T12:03:07;95495.69;;;10.48;70.93
30873;BME280;17579;42.690;2.586;2024-02-26T12:05:35;95493.50;;;10.52;70.96
30873;BME280;17579;42.690;2.586;2024-02-26T12:08:14;95494.31;;;10.52;71.33
30873;BME280;17579;42.690;2.586;2024-02-26T12:10:45;95492.13;;;10.56;71.40
30873;BME280;17579;42.690;2.586;2024-02-26T12:13:13;95484.53;;;10.53;71.10
30873;BME280;17579;42.690;2.586;2024-02-26T12:15:43;95495.94;;;10.53;71.22
30873;BME280;17579;42.690;2.586;2024-02-26T12:18:16;95490.47;;;10.55;70.77
30873;BME280;17579;42.690;2.586;2024-02-26T12:20:42;95496.75;;;10.54;70.55
30873;BME280;17579;42.690;2.586;2024-02-26T12:23:16;95489.59;;;10.48;70.76
30873;BME280;17579;42.690;2.586;2024-02-26T12:25:47;95489.59;;;10.48;71.00
30873;BME280;17579;42.690;2.586;2024-02-26T12:28:18;95486.50;;;10.44;70.92
30873;BME280;17579;42.690;2.586;2024-02-26T12:30:49;95480.97;;;10.39;70.88
30873;BME280;17579;42.690;2.586;2024-02-26T12:33:18;95486.63;;;10.36;70.98
30873;BME280;17579;42.690;2.586;2024-02-26T12:35:53;95477.22;;;10.33;71.15
30873;BME280;17579;42.690;2.586;2024-02-26T12:38:19;95478.22;;;10.32;71.54
30873;BME280;17579;42.690;2.586;2024-02-26T12:40:48;95478.06;;;10.34;71.68
30873;BME280;17579;42.690;2.586;2024-02-26T12:43:16;95483.59;;;10.39;71.91
30873;BME280;17579;42.690;2.586;2024-02-26T12:45:42;95481.00;;;10.46;71.83
30873;BME280;17579;42.690;2.586;2024-02-26T12:48:29;95485.13;;;10.48;71.71
30873;BME280;17579;42.690;2.586;2024-02-26T12:51:01;95479.53;;;10.58;71.61
30873;BME280;17579;42.690;2.586;2024-02-26T12:53:31;95469.22;;;10.63;71.71
30873;BME280;17579;42.690;2.586;2024-02-26T12:56:04;95463.72;;;10.65;71.71
30873;BME280;17579;42.690;2.586;2024-02-26T12:58:39;95463.28;;;10.61;71.42
30873;BME280;17579;42.690;2.586;2024-02-26T13:01:23;95471.78;;;10.56;71.62
30873;BME280;17579;42.690;2.586;2024-02-26T13:03:55;95456.09;;;10.55;71.12
30873;BME280;17579;42.690;2.586;2024-02-26T13:06:34;95458.38;;;10.58;71.55
30873;BME280;17579;42.690;2.586;2024-02-26T13:12:12;95461.81;;;10.58;71.18
30873;BME280;17579;42.690;2.586;2024-02-26T13:15:21;95459.69;;;10.47;71.21
30873;BME280;17579;42.690;2.586;2024-02-26T13:18:19;95463.53;;;10.45;71.06
30873;BME280;17579;42.690;2.586;2024-02-26T13:23:33;95452.59;;;10.33;71.06
30873;BME280;17579;42.690;2.586;2024-02-26T13:26:13;95450.28;;;10.23;71.45
30873;BME280;17579;42.690;2.586;2024-02-26T13:32:10;95444.25;;;10.29;71.27
30873;BME280;17579;42.690;2.586;2024-02-26T13:34:38;95455.00;;;10.28;71.73
30873;BME280;17579;42.690;2.586;2024-02-26T13:37:26;95450.81;;;10.18;71.67
30873;BME280;17579;42.690;2.586;2024-02-26T13:39:52;95449.22;;;10.17;71.98
30873;BME280;17579;42.690;2.586;2024-02-26T13:42:41;95449.81;;;10.19;71.74
30873;BME280;17579;42.690;2.586;2024-02-26T13:45:18;95451.56;;;10.12;71.87
30873;BME280;17579;42.690;2.586;2024-02-26T13:50:45;95450.56;;;10.13;71.99
30873;BME280;17579;42.690;2.586;2024-02-26T13:53:16;95445.91;;;10.15;72.10
30873;BME280;17579;42.690;2.586;2024-02-26T13:55:51;95440.81;;;10.14;71.97
30873;BME280;17579;42.690;2.586;2024-02-26T13:58:17;95441.72;;;10.21;72.23
30873;BME280;17579;42.690;2.586;2024-02-26T14:00:48;95435.84;;;10.26;72.38
30873;BME280;17579;42.690;2.586;2024-02-26T14:03:25;95432.22;;;10.27;72.26
30873;BME280;17579;42.690;2.586;2024-02-26T14:05:51;95429.00;;;10.31;72.01
30873;BME280;17579;42.690;2.586;2024-02-26T14:08:40;95432.66;;;10.30;72.29
30873;BME280;17579;42.690;2.586;2024-02-26T14:11:07;95438.22;;;10.35;72.40
30873;BME280;17579;42.690;2.586;2024-02-26T14:13:33;95445.78;;;10.38;72.56
30873;BME280;17579;42.690;2.586;2024-02-26T14:15:58;95442.78;;;10.42;72.68
30873;BME280;17579;42.690;2.586;2024-02-26T14:18:34;95434.47;;;10.45;72.40
30873;BME280;17579;42.690;2.586;2024-02-26T14:21:00;95442.41;;;10.45;72.58
30873;BME280;17579;42.690;2.586;2024-02-26T14:23:34;95438.88;;;10.37;72.56
30873;BME280;17579;42.690;2.586;2024-02-26T14:29:13;95434.59;;;10.36;72.36
30873;BME280;17579;42.690;2.586;2024-02-26T14:31:52;95430.38;;;10.42;72.68
30873;BME280;17579;42.690;2.586;2024-02-26T14:34:20;95444.38;;;10.43;72.48
30873;BME280;17579;42.690;2.586;2024-02-26T14:36:45;95446.22;;;10.42;73.00
30873;BME280;17579;42.690;2.586;2024-02-26T14:39:21;95446.66;;;10.46;72.64
30873;BME280;17579;42.690;2.586;2024-02-26T14:41:50;95447.69;;;10.45;72.75
30873;BME280;17579;42.690;2.586;2024-02-26T14:46:56;95450.88;;;10.40;72.29
30873;BME280;17579;42.690;2.586;2024-02-26T14:49:21;95454.72;;;10.37;72.48
30873;BME280;17579;42.690;2.586;2024-02-26T14:51:57;95458.97;;;10.38;72.73
30873;BME280;17579;42.690;2.586;2024-02-26T14:54:39;95467.56;;;10.40;72.60
30873;BME280;17579;42.690;2.586;2024-02-26T14:57:25;95466.00;;;10.46;72.34
30873;BME280;17579;42.690;2.586;2024-02-26T15:02:31;95481.66;;;10.33;72.31
30873;BME280;17579;42.690;2.586;2024-02-26T15:04:58;95467.22;;;10.29;71.99
30873;BME280;17579;42.690;2.586;2024-02-26T15:07:47;95467.75;;;10.24;71.88
30873;BME280;17579;42.690;2.586;2024-02-26T15:10:23;95477.19;;;10.12;71.87
30873;BME280;17579;42.690;2.586;2024-02-26T15:13:09;95473.66;;;10.04;72.16
30873;BME280;17579;42.690;2.586;2024-02-26T15:15:35;95486.09;;;10.11;71.63
30873;BME280;17579;42.690;2.586;2024-02-26T15:18:07;95477.75;;;10.07;71.48
30873;BME280;17579;42.690;2.586;2024-02-26T15:20:41;95469.19;;;10.05;71.32
30873;BME280;17579;42.690;2.586;2024-02-26T15:23:07;95462.09;;;9.91;70.85
30873;BME280;17579;42.690;2.586;2024-02-26T15:25:35;95453.84;;;9.64;70.41
30873;BME280;17579;42.690;2.586;2024-02-26T15:28:14;95459.88;;;9.43;71.18
30873;BME280;17579;42.690;2.586;2024-02-26T15:30:40;95464.06;;;9.37;71.29
30873;BME280;17579;42.690;2.586;2024-02-26T15:33:06;95460.25;;;9.40;71.23
30873;BME280;17579;42.690;2.586;2024-02-26T15:35:37;95479.06;;;9.36;71.75
30873;BME280;17579;42.690;2.586;2024-02-26T15:38:07;95478.91;;;9.38;72.36
30873;BME280;17579;42.690;2.586;2024-02-26T15:40:33;95475.34;;;9.46;72.61
30873;BME280;17579;42.690;2.586;2024-02-26T15:43:04;95471.59;;;9.55;72.48
30873;BME280;17579;42.690;2.586;2024-02-26T15:45:39;95466.41;;;9.62;72.29
30873;BME280;17579;42.690;2.586;2024-02-26T15:48:18;95455.41;;;9.73;72.45
30873;BME280;17579;42.690;2.586;2024-02-26T15:50:46;95462.94;;;9.76;71.88
30873;BME280;17579;42.690;2.586;2024-02-26T15:53:21;95463.03;;;9.68;72.07
30873;BME280;17579;42.690;2.586;2024-02-26T15:55:50;95466.31;;;9.55;72.82
30873;BME280;17579;42.690;2.586;2024-02-26T15:58:21;95464.03;;;9.52;73.13
30873;BME280;17579;42.690;2.586;2024-02-26T16:01:04;95464.06;;;9.37;73.10
30873;BME280;17579;42.690;2.586;2024-02-26T16:03:29;95464.88;;;9.38;73.62
30873;BME280;17579;42.690;2.586;2024-02-26T16:05:55;95462.03;;;9.24;73.84
30873;BME280;17579;42.690;2.586;2024-02-26T16:08:24;95462.84;;;9.25;74.43
30873;BME280;17579;42.690;2.586;2024-02-26T16:10:53;95465.56;;;9.16;74.91
30873;BME280;17579;42.690;2.586;2024-02-26T16:13:30;95466.84;;;9.21;75.33
30873;BME280;17579;42.690;2.586;2024-02-26T16:16:05;95467.69;;;9.21;75.44
30873;BME280;17579;42.690;2.586;2024-02-26T16:18:38;95470.03;;;9.31;75.76
30873;BME280;17579;42.690;2.586;2024-02-26T16:21:05;95460.88;;;9.27;75.83
30873;BME280;17579;42.690;2.586;2024-02-26T16:23:38;95471.38;;;9.12;76.13
30873;BME280;17579;42.690;2.586;2024-02-26T16:26:12;95462.66;;;9.11;76.12
30873;BME280;17579;42.690;2.586;2024-02-26T16:28:58;95470.03;;;9.16;76.21
30873;BME280;17579;42.690;2.586;2024-02-26T16:31:26;95467.69;;;9.21;76.34
30873;BME280;17579;42.690;2.586;2024-02-26T16:33:51;95468.50;;;9.22;76.40
30873;BME280;17579;42.690;2.586;2024-02-26T16:36:40;95479.41;;;9.18;76.34
30873;BME280;17579;42.690;2.586;2024-02-26T16:39:15;95484.88;;;9.17;76.64
30873;BME280;17579;42.690;2.586;2024-02-26T16:41:45;95492.59;;;9.18;76.78
30873;BME280;17579;42.690;2.586;2024-02-26T16:44:11;95493.78;;;9.16;77.03
30873;BME280;17579;42.690;2.586;2024-02-26T16:46:37;95509.25;;;9.19;77.20
30873;BME280;17579;42.690;2.586;2024-02-26T16:49:02;95502.16;;;9.19;76.93
30873;BME280;17579;42.690;2.586;2024-02-26T16:51:29;95502.16;;;9.19;77.46
30873;BME280;17579;42.690;2.586;2024-02-26T16:53:54;95508.06;;;9.22;77.32
30873;BME280;17579;42.690;2.586;2024-02-26T16:56:28;95506.53;;;9.27;77.68
30873;BME280;17579;42.690;2.586;2024-02-26T16:58:53;95522.56;;;9.41;77.76
30873;BME280;17579;42.690;2.586;2024-02-26T17:01:20;95516.56;;;9.47;77.79
30873;BME280;17579;42.690;2.586;2024-02-26T17:03:45;95521.75;;;9.55;77.65
30873;BME280;17579;42.690;2.586;2024-02-26T17:06:13;95526.66;;;9.58;77.74
30873;BME280;17579;42.690;2.586;2024-02-26T17:08:49;95532.59;;;9.60;77.61
30873;BME280;17579;42.690;2.586;2024-02-26T17:11:18;95536.78;;;9.54;77.27
30873;BME280;17579;42.690;2.586;2024-02-26T17:13:44;95531.66;;;9.53;77.67
30873;BME280;17579;42.690;2.586;2024-02-26T17:16:20;95528.94;;;9.46;77.45
30873;BME280;17579;42.690;2.586;2024-02-26T17:18:46;95533.22;;;9.47;77.56
30873;BME280;17579;42.690;2.586;2024-02-26T17:21:17;95532.59;;;9.45;77.64
30873;BME280;17579;42.690;2.586;2024-02-26T17:23:49;95530.75;;;9.46;77.50
30873;BME280;17579;42.690;2.586;2024-02-26T17:26:27;95532.28;;;9.40;77.39
30873;BME280;17579;42.690;2.586;2024-02-26T17:28:53;95543.16;;;9.45;77.45
30873;BME280;17579;42.690;2.586;2024-02-26T17:31:18;95542.31;;;9.45;77.60
30873;BME280;17579;42.690;2.586;2024-02-26T17:33:45;95547.94;;;9.42;77.59
30873;BME280;17579;42.690;2.586;2024-02-26T17:36:21;95547.31;;;9.40;77.81
30873;BME280;17579;42.690;2.586;2024-02-26T17:38:49;95543.28;;;9.44;78.06
30873;BME280;17579;42.690;2.586;2024-02-26T17:41:15;95549.84;;;9.48;78.07
30873;BME280;17579;42.690;2.586;2024-02-26T17:44:02;95553.97;;;9.50;77.92
30873;BME280;17579;42.690;2.586;2024-02-26T17:46:37;95557.88;;;9.54;77.98
30873;BME280;17579;42.690;2.586;2024-02-26T17:49:02;95553.84;;;9.44;77.57
30873;BME280;17579;42.690;2.586;2024-02-26T17:51:28;95555.94;;;9.33;77.65
30873;BME280;17579;42.690;2.586;2024-02-26T17:54:19;95560.66;;;9.23;77.56
30873;BME280;17579;42.690;2.586;2024-02-26T17:56:45;95563.00;;;9.18;77.66
30873;BME280;17579;42.690;2.586;2024-02-26T17:59:23;95561.72;;;9.14;77.82
30873;BME280;17579;42.690;2.586;2024-02-26T18:01:54;95573.81;;;9.08;77.98
30873;BME280;17579;42.690;2.586;2024-02-26T18:04:20;95566.88;;;9.07;77.82
30873;BME280;17579;42.690;2.586;2024-02-26T18:06:45;95571.03;;;9.01;78.27
30873;BME280;17579;42.690;2.586;2024-02-26T18:09:21;95571.53;;;9.05;78.22
30873;BME280;17579;42.690;2.586;2024-02-26T18:11:53;95576.94;;;9.04;78.48
30873;BME280;17579;42.690;2.586;2024-02-26T18:14:25;95587.34;;;9.05;78.83
30873;BME280;17579;42.690;2.586;2024-02-26T18:16:53;95589.09;;;9.13;78.78
30873;BME280;17579;42.690;2.586;2024-02-26T18:19:55;95595.00;;;9.15;78.67
30873;BME280;17579;42.690;2.586;2024-02-26T18:22:26;95594.50;;;9.19;78.83
30873;BME280;17579;42.690;2.586;2024-02-26T18:24:52;95588.66;;;9.24;78.82
30873;BME280;17579;42.690;2.586;2024-02-26T18:27:20;95591.94;;;9.26;78.75
30873;BME280;17579;42.690;2.586;2024-02-26T18:29:45;95599.50;;;9.29;78.78
30873;BME280;17579;42.690;2.586;2024-02-26T18:32:19;95601.31;;;9.29;78.42
30873;BME280;17579;42.690;2.586;2024-02-26T18:34:45;95603.97;;;9.29;78.60
30873;BME280;17579;42.690;2.586;2024-02-26T18:37:11;95608.25;;;9.30;78.55
30873;BME280;17579;42.690;2.586;2024-02-26T18:39:37;95601.94;;;9.31;78.67
30873;BME280;17579;42.690;2.586;2024-02-26T18:42:05;95610.72;;;9.31;78.74
30873;BME280;17579;42.690;2.586;2024-02-26T18:44:44;95611.88;;;9.29;78.62
30873;BME280;17579;42.690;2.586;2024-02-26T18:47:12;95612.50;;;9.31;78.49
30873;BME280;17579;42.690;2.586;2024-02-26T18:49:49;95619.44;;;9.32;78.63
30873;BME280;17579;42.690;2.586;2024-02-26T18:52:15;95630.34;;;9.29;78.63
30873;BME280;17579;42.690;2.586;2024-02-26T18:54:43;95635.50;;;9.22;78.50
30873;BME280;17579;42.690;2.586;2024-02-26T18:57:11;95640.38;;;9.10;78.53
30873;BME280;17579;42.690;2.586;2024-02-26T18:59:40;95638.97;;;8.99;78.59
30873;BME280;17579;42.690;2.586;2024-02-26T19:02:10;95642.94;;;8.95;78.66
30873;BME280;17579;42.690;2.586;2024-02-26T19:04:38;95640.50;;;8.94;78.98
30873;BME280;17579;42.690;2.586;2024-02-26T19:07:15;95642.63;;;8.90;79.28
30873;BME280;17579;42.690;2.586;2024-02-26T19:09:49;95642.09;;;8.95;78.92
30873;BME280;17579;42.690;2.586;2024-02-26T19:12:20;95641.31;;;8.94;78.92
30873;BME280;17579;42.690;2.586;2024-02-26T19:14:47;95640.31;;;8.95;79.17
30873;BME280;17579;42.690;2.586;2024-02-26T19:17:17;95637.38;;;8.90;79.16
30873;BME280;17579;42.690;2.586;2024-02-26T19:19:46;95641.34;;;8.86;79.35
30873;BME280;17579;42.690;2.586;2024-02-26T19:22:16;95639.00;;;8.91;79.24
30873;BME280;17579;42.690;2.586;2024-02-26T19:24:45;95652.19;;;8.91;79.36
30873;BME280;17579;42.690;2.586;2024-02-26T19:27:10;95664.72;;;8.89;79.16
30873;BME280;17579;42.690;2.586;2024-02-26T19:29:36;95670.53;;;8.84;79.35
30873;BME280;17579;42.690;2.586;2024-02-26T19:32:02;95689.81;;;8.85;79.40
30873;BME280;17579;42.690;2.586;2024-02-26T19:34:37;95696.06;;;8.84;79.25
30873;BME280;17579;42.690;2.586;2024-02-26T19:37:04;95698.88;;;8.82;79.34
30873;BME280;17579;42.690;2.586;2024-02-26T19:39:30;95700.41;;;8.77;79.26
30873;BME280;17579;42.690;2.586;2024-02-26T19:41:59;95717.09;;;8.61;79.30
30873;BME280;17579;42.690;2.586;2024-02-26T19:44:34;95725.53;;;8.56;79.13
30873;BME280;17579;42.690;2.586;2024-02-26T19:47:00;95729.50;;;8.52;79.34
30873;BME280;17579;42.690;2.586;2024-02-26T19:49:28;95734.59;;;8.54;79.30
30873;BME280;17579;42.690;2.586;2024-02-26T19:51:54;95741.81;;;8.60;79.64
30873;BME280;17579;42.690;2.586;2024-02-26T19:54:19;95746.25;;;8.59;79.55
30873;BME280;17579;42.690;2.586;2024-02-26T19:56:45;95749.06;;;8.58;79.27
30873;BME280;17579;42.690;2.586;2024-02-26T19:59:13;95752.88;;;8.55;79.26
30873;BME280;17579;42.690;2.586;2024-02-26T20:01:42;95763.75;;;8.52;79.16
30873;BME280;17579;42.690;2.586;2024-02-26T20:04:19;95760.44;;;8.50;79.32
30873;BME280;17579;42.690;2.586;2024-02-26T20:06:45;95753.84;;;8.54;78.95
30873;BME280;17579;42.690;2.586;2024-02-26T20:09:14;95766.22;;;8.54;79.41
30873;BME280;17579;42.690;2.586;2024-02-26T20:11:39;95765.06;;;8.56;79.32
30873;BME280;17579;42.690;2.586;2024-02-26T20:14:11;95764.53;;;8.61;79.48
30873;BME280;17579;42.690;2.586;2024-02-26T20:16:42;95761.38;;;8.65;79.56
30873;BME280;17579;42.690;2.586;2024-02-26T20:19:07;95761.72;;;8.71;79.00
30873;BME280;17579;42.690;2.586;2024-02-26T20:21:38;95766.66;;;8.74;79.26
30873;BME280;17579;42.690;2.586;2024-02-26T20:24:09;95770.59;;;8.78;79.10
30873;BME280;17579;42.690;2.586;2024-02-26T20:26:36;95765.78;;;8.81;79.17
30873;BME280;17579;42.690;2.586;2024-02-26T20:29:05;95774.66;;;8.80;79.05
30873;BME280;17579;42.690;2.586;2024-02-26T20:31:33;95774.84;;;8.79;78.88
30873;BME280;17579;42.690;2.586;2024-02-26T20:33:59;95779.31;;;8.78;78.69
30873;BME280;17579;42.690;2.586;2024-02-26T20:36:29;95790.84;;;8.77;78.99
30873;BME280;17579;42.690;2.586;2024-02-26T20:38:55;95789.84;;;8.78;78.68
30873;BME280;17579;42.690;2.586;2024-02-26T20:41:33;95796.63;;;8.73;79.09
30873;BME280;17579;42.690;2.586;2024-02-26T20:43:59;95798.63;;;8.71;78.83
30873;BME280;17579;42.690;2.586;2024-02-26T20:46:34;95798.28;;;8.74;79.17
30873;BME280;17579;42.690;2.586;2024-02-26T20:49:02;95796.94;;;8.78;79.13
30873;BME280;17579;42.690;2.586;2024-02-26T20:51:30;95798.22;;;8.82;79.30
30873;BME280;17579;42.690;2.586;2024-02-26T20:54:14;95787.38;;;8.85;79.11
30873;BME280;17579;42.690;2.586;2024-02-26T20:56:43;95797.91;;;8.85;79.19
30873;BME280;17579;42.690;2.586;2024-02-26T20:59:16;95800.38;;;8.87;79.19
30873;BME280;17579;42.690;2.586;2024-02-26T21:01:41;95801.03;;;8.89;79.28
30873;BME280;17579;42.690;2.586;2024-02-26T21:04:29;95802.84;;;8.88;78.94
30873;BME280;17579;42.690;2.586;2024-02-26T21:06:56;95794.09;;;8.88;79.00
30873;BME280;17579;42.690;2.586;2024-02-26T21:09:25;95808.13;;;8.88;79.09
30873;BME280;17579;42.690;2.586;2024-02-26T21:11:50;95807.09;;;8.89;79.17
30873;BME280;17579;42.690;2.586;2024-02-26T21:14:18;95816.84;;;8.89;79.32
30873;BME280;17579;42.690;2.586;2024-02-26T21:16:53;95819.31;;;8.90;79.16
30873;BME280;17579;42.690;2.586;2024-02-26T21:19:19;95819.13;;;8.92;79.15
30873;BME280;17579;42.690;2.586;2024-02-26T21:21:44;95817.50;;;8.91;79.11
30873;BME280;17579;42.690;2.586;2024-02-26T21:24:30;95820.00;;;8.84;79.53
30873;BME280;17579;42.690;2.586;2024-02-26T21:26:55;95815.19;;;8.88;79.02
30873;BME280;17579;42.690;2.586;2024-02-26T21:29:27;95817.34;;;8.84;78.98
30873;BME280;17579;42.690;2.586;2024-02-26T21:31:52;95819.00;;;8.85;78.92
30873;BME280;17579;42.690;2.586;2024-02-26T21:34:21;95820.81;;;8.84;79.07
30873;BME280;17579;42.690;2.586;2024-02-26T21:36:49;95817.69;;;8.81;78.83
30873;BME280;17579;42.690;2.586;2024-02-26T21:39:33;95818.19;;;8.76;79.23
30873;BME280;17579;42.690;2.586;2024-02-26T21:42:07;95815.88;;;8.81;79.06
30873;BME280;17579;42.690;2.586;2024-02-26T21:44:35;95819.03;;;8.77;79.08
30873;BME280;17579;42.690;2.586;2024-02-26T21:47:00;95817.72;;;8.73;79.04
30873;BME280;17579;42.690;2.586;2024-02-26T21:49:28;95822.00;;;8.74;79.11
30873;BME280;17579;42.690;2.586;2024-02-26T21:51:59;95819.38;;;8.74;79.24
30873;BME280;17579;42.690;2.586;2024-02-26T21:54:25;95820.19;;;8.74;79.07
30873;BME280;17579;42.690;2.586;2024-02-26T21:56:54;95825.63;;;8.73;79.09
30873;BME280;17579;42.690;2.586;2024-02-26T21:59:30;95820.69;;;8.70;79.41
30873;BME280;17579;42.690;2.586;2024-02-26T22:02:12;95823.31;;;8.70;79.20
30873;BME280;17579;42.690;2.586;2024-02-26T22:04:38;95821.16;;;8.73;79.08
30873;BME280;17579;42.690;2.586;2024-02-26T22:07:04;95828.25;;;8.73;79.10
30873;BME280;17579;42.690;2.586;2024-02-26T22:09:29;95825.44;;;8.74;79.13
30873;BME280;17579;42.690;2.586;2024-02-26T22:11:58;95825.94;;;8.78;79.07
30873;BME280;17579;42.690;2.586;2024-02-26T22:14:26;95825.28;;;8.76;78.86
30873;BME280;17579;42.690;2.586;2024-02-26T22:16:52;95833.50;;;8.81;79.30
30873;BME280;17579;42.690;2.586;2024-02-26T22:19:17;95833.50;;;8.81;79.20
30873;BME280;17579;42.690;2.586;2024-02-26T22:21:53;95829.88;;;8.82;79.05
30873;BME280;17579;42.690;2.586;2024-02-26T22:24:24;95833.97;;;8.84;79.18
30873;BME280;17579;42.690;2.586;2024-02-26T22:26:50;95824.91;;;8.87;78.92
30873;BME280;17579;42.690;2.586;2024-02-26T22:29:24;95832.81;;;8.87;79.08
30873;BME280;17579;42.690;2.586;2024-02-26T22:31:50;95837.28;;;8.87;78.86
30873;BME280;17579;42.690;2.586;2024-02-26T22:34:19;95839.94;;;8.87;79.28
30873;BME280;17579;42.690;2.586;2024-02-26T22:36:44;95838.75;;;8.89;79.06
30873;BME280;17579;42.690;2.586;2024-02-26T22:39:15;95838.59;;;8.91;78.91
30873;BME280;17579;42.690;2.586;2024-02-26T22:41:42;95842.06;;;8.91;78.93
30873;BME280;17579;42.690;2.586;2024-02-26T22:44:11;95838.59;;;8.91;79.06
30873;BME280;17579;42.690;2.586;2024-02-26T22:46:39;95835.97;;;8.91;78.96
30873;BME280;17579;42.690;2.586;2024-02-26T22:49:05;95840.41;;;8.90;79.01
30873;BME280;17579;42.690;2.586;2024-02-26T22:51:31;95838.59;;;8.91;78.82
30873;BME280;17579;42.690;2.586;2024-02-26T22:54:06;95839.41;;;8.91;78.82
30873;BME280;17579;42.690;2.586;2024-02-26T22:56:32;95836.44;;;8.86;78.68
30873;BME280;17579;42.690;2.586;2024-02-26T22:58:57;95844.88;;;8.81;78.93
30873;BME280;17579;42.690;2.586;2024-02-26T23:01:26;95851.13;;;8.80;78.89
30873;BME280;17579;42.690;2.586;2024-02-26T23:03:52;95840.59;;;8.80;78.98
30873;BME280;17579;42.690;2.586;2024-02-26T23:06:20;95845.22;;;8.78;78.82
30873;BME280;17579;42.690;2.586;2024-02-26T23:09:02;95847.22;;;8.68;79.22
30873;BME280;17579;42.690;2.586;2024-02-26T23:11:33;95846.22;;;8.69;78.92
30873;BME280;17579;42.690;2.586;2024-02-26T23:14:05;95838.63;;;8.66;78.77
30873;BME280;17579;42.690;2.586;2024-02-26T23:16:33;95840.13;;;8.60;79.06
30873;BME280;17579;42.690;2.586;2024-02-26T23:19:19;95837.69;;;8.51;79.48
30873;BME280;17579;42.690;2.586;2024-02-26T23:21:47;95839.31;;;8.52;79.16
30873;BME280;17579;42.690;2.586;2024-02-26T23:24:13;95848.53;;;8.47;79.28
30873;BME280;17579;42.690;2.586;2024-02-26T23:26:39;95849.88;;;8.43;79.20
30873;BME280;17579;42.690;2.586;2024-02-26T23:29:08;95851.00;;;8.41;79.50
30873;BME280;17579;42.690;2.586;2024-02-26T23:31:33;95851.66;;;8.43;79.63
30873;BME280;17579;42.690;2.586;2024-02-26T23:33:59;95843.91;;;8.41;79.42
30873;BME280;17579;42.690;2.586;2024-02-26T23:36:33;95851.19;;;8.39;79.19
30873;BME280;17579;42.690;2.586;2024-02-26T23:38:59;95848.53;;;8.39;79.46
30873;BME280;17579;42.690;2.586;2024-02-26T23:41:47;95847.88;;;8.37;79.34
30873;BME280;17579;42.690;2.586;2024-02-26T23:44:15;95857.75;;;8.35;79.40
30873;BME280;17579;42.690;2.586;2024-02-26T23:46:41;95849.69;;;8.37;79.69
30873;BME280;17579;42.690;2.586;2024-02-26T23:49:06;95846.25;;;8.36;79.94
30873;BME280;17579;42.690;2.586;2024-02-26T23:51:32;95841.78;;;8.37;79.68
30873;BME280;17579;42.690;2.586;2024-02-26T23:54:05;95837.50;;;8.36;79.93
30873;BME280;17579;42.690;2.586;2024-02-26T23:56:42;95845.06;;;8.39;79.53
30873;BME280;17579;42.690;2.586;2024-02-26T23:59:16;95841.44;;;8.40;79.42
